Time;durP1;ratioP1;P1;durP2;ratioP2;P2;SDS_P1;SDS_P2;PMS_P1;PMS_P2;Temp;Humidity;BMP_temperature;BMP_pressure;BME280_temperature;BME280_humidity;BME280_pressure;Samples;Min_cycle;Max_cycle;Signal;HPM_P1;HPM_P2
2022/01/25 00:09:14;;;;;;;9.57;6.93;;;4.30;99.90;3.30;101338;;;;569946;248;35278;-79
2022/01/25 00:26:04;;;;;;;5.97;3.77;;;4.20;99.90;3.30;101327;;;;566281;249;24173;-78
2022/01/25 00:27:48;;;;;;;6.13;4.00;;;4.30;99.90;3.30;101313;;;;555005;249;24109;-77
2022/01/25 00:30:25;;;;;;;6.47;3.40;;;4.20;99.90;3.30;101305;;;;566032;250;24199;-75
2022/01/25 00:32:39;;;;;;;7.43;3.50;;;4.20;99.90;3.30;101300;;;;573725;250;24137;-77
2022/01/25 00:35:07;;;;;;;5.30;3.77;;;4.30;99.90;3.30;101289;;;;563102;249;24134;-76
2022/01/25 00:37:35;;;;;;;5.73;3.43;;;4.20;99.90;3.30;101293;;;;563103;249;24083;-77
2022/01/25 00:40:05;;;;;;;5.07;3.00;;;4.20;99.90;3.30;101279;;;;566006;250;24093;-76
2022/01/25 00:42:30;;;;;;;3.80;2.50;;;4.30;99.90;3.30;101281;;;;565489;250;25136;-77
2022/01/25 00:44:59;;;;;;;5.57;3.27;;;4.20;99.90;3.30;101273;;;;562784;250;24146;-78
2022/01/25 00:47:30;;;;;;;6.87;4.57;;;4.30;99.90;3.30;101276;;;;565297;250;24095;-78
2022/01/25 00:49:54;;;;;;;4.70;3.60;;;4.30;99.90;3.30;101280;;;;565212;250;24097;-77
2022/01/25 00:53:52;;;;;;;5.03;3.40;;;4.20;99.90;3.30;101274;;;;573901;249;24086;-79
2022/01/25 00:54:57;;;;;;;8.48;5.05;;;4.30;99.90;3.30;101262;;;;567632;250;35259;-80
2022/01/25 00:57:21;;;;;;;5.10;3.80;;;4.30;99.90;3.40;101278;;;;569469;250;24095;-79
2022/01/25 00:59:48;;;;;;;5.70;3.93;;;4.30;99.90;3.40;101272;;;;574044;249;24127;-82
2022/01/25 01:02:16;;;;;;;6.82;5.28;;;4.40;99.90;3.40;101277;;;;557096;249;35441;-80
2022/01/25 01:04:44;;;;;;;4.63;4.13;;;4.40;99.90;3.40;101279;;;;574467;247;24072;-83
2022/01/25 01:07:14;;;;;;;6.17;3.43;;;4.40;99.90;3.40;101275;;;;583708;245;24201;-84
2022/01/25 01:09:43;;;;;;;5.60;3.50;;;4.40;99.90;3.40;101273;;;;573211;244;24125;-83
2022/01/25 01:12:13;;;;;;;7.70;3.40;;;4.40;99.90;3.40;101267;;;;565823;250;24114;-83
2022/01/25 01:31:00;;;;;;;5.53;3.97;;;4.40;99.90;3.40;101270;;;;566627;249;24090;-77
2022/01/25 01:33:42;;;;;;;8.63;4.10;;;4.30;99.90;3.30;101268;;;;574380;249;24116;-77
2022/01/25 01:36:32;;;;;;;8.13;3.77;;;4.30;99.90;3.40;101260;;;;566148;249;24155;-77
2022/01/25 01:44:03;;;;;;;9.73;4.00;;;4.30;99.90;3.30;101254;;;;571823;248;24164;-82
2022/01/25 01:46:35;;;;;;;6.60;4.30;;;4.30;99.90;3.30;101259;;;;561456;255;24102;-80
2022/01/25 01:48:59;;;;;;;6.43;4.70;;;4.30;99.90;3.30;101271;;;;572043;247;25225;-80
2022/01/25 01:51:32;;;;;;;8.10;4.33;;;4.30;99.90;3.30;101266;;;;573821;250;24102;-78
2022/01/25 01:53:57;;;;;;;9.27;4.60;;;4.30;99.90;3.30;101264;;;;565453;250;24128;-78
2022/01/25 01:56:25;;;;;;;9.67;5.30;;;4.30;99.90;3.30;101267;;;;565435;250;24114;-78
2022/01/25 01:58:53;;;;;;;7.63;5.07;;;4.30;99.90;3.30;101268;;;;573948;249;24078;-77
2022/01/25 02:01:24;;;;;;;9.33;5.00;;;4.30;99.90;3.30;101254;;;;560446;252;24166;-77
2022/01/25 02:03:53;;;;;;;7.03;4.70;;;4.30;99.90;3.30;101243;;;;572286;246;24066;-78
2022/01/25 02:06:17;;;;;;;7.70;5.37;;;4.30;99.90;3.30;101238;;;;577362;246;24061;-77
2022/01/25 02:08:45;;;;;;;7.70;5.23;;;4.30;99.90;3.30;101243;;;;563347;250;24086;-81
2022/01/25 02:11:16;;;;;;;8.23;5.50;;;4.30;99.90;3.30;101241;;;;562663;250;24111;-78
2022/01/25 02:13:41;;;;;;;10.17;4.97;;;4.30;99.90;3.30;101245;;;;565385;250;24168;-78
2022/01/25 02:16:15;;;;;;;8.23;4.50;;;4.30;99.90;3.30;101237;;;;565972;249;24100;-77
2022/01/25 02:24:09;;;;;;;12.90;6.43;;;4.30;99.90;3.30;101228;;;;566144;250;24093;-80
2022/01/25 02:26:39;;;;;;;10.07;6.03;;;4.30;99.90;3.30;101221;;;;574623;246;24133;-80
2022/01/25 02:29:08;;;;;;;7.07;5.30;;;4.30;99.90;3.30;101223;;;;563915;250;24160;-79
2022/01/25 02:31:33;;;;;;;8.67;5.63;;;4.20;99.90;3.30;101222;;;;575396;249;24106;-80
2022/01/25 02:34:01;;;;;;;12.47;5.47;;;4.20;99.90;3.30;101227;;;;566896;247;24068;-78
2022/01/25 02:36:29;;;;;;;7.87;4.73;;;4.30;99.90;3.30;101222;;;;575373;246;24126;-78
2022/01/25 02:39:01;;;;;;;9.20;5.67;;;4.20;99.90;3.30;101213;;;;566505;250;24081;-78
2022/01/25 02:41:25;;;;;;;8.50;5.07;;;4.20;99.90;3.20;101206;;;;563147;250;24103;-79
2022/01/25 02:43:56;;;;;;;9.27;5.20;;;4.20;99.90;3.20;101209;;;;563600;249;25164;-78
2022/01/25 02:48:29;;;;;;;10.10;5.60;;;4.20;99.90;3.20;101202;;;;566203;250;24150;-79
2022/01/25 02:48:57;;;;;;;9.67;5.70;;;4.20;99.90;3.20;101204;;;;565884;247;24104;-77
2022/01/25 02:51:29;;;;;;;7.23;4.27;;;4.20;99.90;3.20;101190;;;;566079;250;24104;-78
2022/01/25 02:53:57;;;;;;;9.60;4.80;;;4.10;99.90;3.20;101182;;;;574329;246;24058;-78
2022/01/25 02:56:25;;;;;;;10.07;7.43;;;4.10;99.90;3.20;101184;;;;574981;248;24100;-77
2022/01/25 02:58:56;;;;;;;6.90;4.83;;;4.10;99.90;3.10;101182;;;;565785;249;25121;-79
2022/01/25 03:01:21;;;;;;;7.47;4.67;;;4.10;99.90;3.10;101187;;;;562950;250;24113;-80
2022/01/25 03:03:52;;;;;;;8.87;5.87;;;4.10;99.90;3.10;101187;;;;574373;248;24109;-84
2022/01/25 03:06:21;;;;;;;8.53;4.33;;;4.10;99.90;3.10;101187;;;;565411;250;24113;-79
2022/01/25 03:08:48;;;;;;;9.60;4.87;;;4.10;99.90;3.10;101186;;;;573897;249;24116;-78
2022/01/25 03:11:16;;;;;;;8.90;4.40;;;4.00;99.90;3.10;101190;;;;565386;250;24106;-79
2022/01/25 03:13:51;;;;;;;12.60;6.97;;;4.00;99.90;3.10;101190;;;;569932;250;24105;-82
2022/01/25 03:16:23;;;;;;;9.40;4.40;;;4.00;99.90;3.10;101180;;;;562660;250;24177;-81
2022/01/25 03:18:46;;;;;;;9.17;5.57;;;4.00;99.90;3.10;101191;;;;573306;247;24114;-78
2022/01/25 03:21:33;;;;;;;6.80;4.90;;;4.00;99.90;3.10;101182;;;;564907;250;24094;-79
2022/01/25 03:23:45;;;;;;;8.23;4.03;;;4.00;99.90;3.10;101168;;;;559319;255;24131;-78
2022/01/25 03:26:13;;;;;;;5.53;3.73;;;4.00;99.90;3.10;101165;;;;569204;247;24090;-79
2022/01/25 03:28:41;;;;;;;8.17;4.20;;;4.00;99.90;3.10;101158;;;;565383;250;24094;-77
2022/01/25 03:31:09;;;;;;;7.30;3.83;;;4.00;99.90;3.10;101154;;;;561455;249;24104;-78
2022/01/25 03:33:41;;;;;;;8.50;4.37;;;4.00;99.90;3.00;101159;;;;562904;251;24103;-81
2022/01/25 03:36:08;;;;;;;9.40;4.13;;;4.00;99.90;3.10;101163;;;;568827;247;24105;-81
2022/01/25 03:38:33;;;;;;;5.53;3.20;;;4.00;99.90;3.00;101157;;;;565474;250;26337;-79
2022/01/25 03:41:01;;;;;;;7.33;4.00;;;4.00;99.90;3.00;101159;;;;566680;250;24089;-80
2022/01/25 03:43:29;;;;;;;7.30;4.20;;;4.00;99.90;3.00;101161;;;;563648;250;24184;-81
2022/01/25 03:46:02;;;;;;;6.00;4.17;;;4.00;99.90;3.00;101158;;;;566309;250;24100;-79
2022/01/25 03:50:54;;;;;;;5.80;3.40;;;4.00;99.90;3.00;101163;;;;561469;249;24155;-82
2022/01/25 03:53:22;;;;;;;8.67;3.97;;;4.00;99.90;3.00;101163;;;;577299;246;24057;-81
2022/01/25 03:55:49;;;;;;;9.97;4.40;;;3.90;99.90;3.00;101164;;;;567188;250;24201;-79
2022/01/25 03:58:19;;;;;;;6.27;2.80;;;4.00;99.90;3.00;101168;;;;566159;250;24093;-79
2022/01/25 04:00:45;;;;;;;6.17;3.67;;;4.00;99.90;3.00;101176;;;;565926;250;24174;-79
2022/01/25 04:03:18;;;;;;;4.00;2.93;;;4.00;99.90;3.10;101170;;;;565741;249;24160;-83
2022/01/25 04:08:12;;;;;;;6.50;3.30;;;4.00;99.90;3.10;101162;;;;562571;250;24171;-79
2022/01/25 04:10:37;;;;;;;4.33;3.17;;;4.00;99.90;3.10;101158;;;;573827;250;24102;-79
2022/01/25 04:13:05;;;;;;;4.90;3.43;;;4.00;99.90;3.10;101161;;;;565691;250;24096;-79
2022/01/25 04:15:33;;;;;;;6.07;2.60;;;4.00;99.90;3.10;101148;;;;562579;250;24093;-80
2022/01/25 04:18:30;;;;;;;5.13;2.80;;;4.00;99.90;3.10;101139;;;;565896;249;24088;-79
2022/01/25 04:20:34;;;;;;;4.57;2.70;;;4.10;99.90;3.10;101137;;;;557903;256;24173;-79
2022/01/25 04:25:47;;;;;;;4.47;3.00;;;4.10;99.90;3.10;101141;;;;572215;247;24111;-80
2022/01/25 04:28:13;;;;;;;6.67;3.53;;;4.10;99.90;3.10;101137;;;;565441;250;24181;-79
2022/01/25 04:30:43;;;;;;;5.30;3.47;;;4.10;99.90;3.10;101134;;;;565797;248;24143;-79
2022/01/25 04:33:25;;;;;;;4.30;3.20;;;4.10;99.90;3.20;101128;;;;565744;249;24109;-78
2022/01/25 04:49:22;;;;;;;6.83;3.17;;;4.20;99.90;3.30;101138;;;;565624;250;24095;-79
2022/01/25 04:52:11;;;;;;;5.67;3.10;;;4.20;99.90;3.30;101133;;;;574449;248;24096;-81
2022/01/25 04:59:53;;;;;;;3.90;3.20;;;4.20;99.90;3.30;101131;;;;566100;250;24157;-80
2022/01/25 05:02:33;;;;;;;4.50;2.40;;;4.20;99.90;3.30;101126;;;;565254;250;24116;-83
2022/01/25 05:05:03;;;;;;;7.20;4.93;;;4.30;99.90;3.30;101121;;;;561024;250;35402;-80
2022/01/25 05:10:03;;;;;;;4.83;3.43;;;4.30;99.90;3.30;101126;;;;583645;246;24043;-80
2022/01/25 05:12:41;;;;;;;4.80;3.00;;;4.30;99.90;3.40;101124;;;;565682;250;24078;-82
2022/01/25 05:15:39;;;;;;;6.90;3.23;;;4.30;99.90;3.40;101112;;;;565642;250;24117;-78
2022/01/25 05:17:38;;;;;;;5.07;3.50;;;4.30;99.90;3.40;101120;;;;558614;250;24137;-79
2022/01/25 05:22:50;;;;;;;5.13;3.77;;;4.30;99.90;3.40;101121;;;;566044;250;24148;-79
2022/01/25 05:25:15;;;;;;;5.80;3.37;;;4.40;99.90;3.40;101124;;;;565653;250;24154;-80
2022/01/25 05:27:43;;;;;;;4.07;3.07;;;4.40;99.90;3.40;101119;;;;565923;249;24108;-75
2022/01/25 05:30:11;;;;;;;2.80;2.60;;;4.40;99.90;3.40;101124;;;;565774;250;25134;-79
2022/01/25 05:32:39;;;;;;;3.50;2.60;;;4.40;99.90;3.50;101129;;;;574379;248;24147;-79
2022/01/25 05:35:07;;;;;;;4.70;2.80;;;4.40;99.90;3.50;101121;;;;574384;244;25126;-79
2022/01/25 05:37:41;;;;;;;4.43;3.23;;;4.40;99.90;3.50;101113;;;;574388;248;24138;-80
2022/01/25 05:40:07;;;;;;;4.23;3.13;;;4.40;99.90;3.50;101116;;;;565056;250;24174;-80
2022/01/25 05:45:26;;;;;;;4.30;3.10;;;4.50;99.90;3.50;101101;;;;560221;239;24156;-82
2022/01/25 05:47:45;;;;;;;4.17;3.33;;;4.50;99.90;3.50;101096;;;;547091;259;24161;-82
2022/01/25 05:50:13;;;;;;;4.47;2.57;;;4.50;99.90;3.50;101093;;;;549252;259;24140;-82
2022/01/25 05:52:41;;;;;;;6.87;3.83;;;4.50;99.90;3.50;101087;;;;559765;254;24107;-81
2022/01/25 05:55:09;;;;;;;5.77;3.37;;;4.50;99.90;3.50;101099;;;;551880;257;24131;-81
2022/01/25 05:57:37;;;;;;;2.33;2.17;;;4.50;99.90;3.50;101092;;;;543546;259;24181;-82
2022/01/25 06:00:05;;;;;;;8.83;2.83;;;4.50;99.90;3.60;101100;;;;550345;258;24169;-81
2022/01/25 06:02:34;;;;;;;2.90;2.43;;;4.50;99.90;3.60;101099;;;;542066;263;24209;-82
2022/01/25 06:05:03;;;;;;;6.17;3.37;;;4.50;99.90;3.60;101101;;;;545068;262;24207;-81
2022/01/25 06:07:31;;;;;;;3.40;2.50;;;4.50;99.90;3.60;101104;;;;546563;259;24147;-80
2022/01/25 06:10:02;;;;;;;5.03;3.00;;;4.50;99.90;3.60;101104;;;;554546;257;24167;-80
2022/01/25 06:12:28;;;;;;;4.30;2.60;;;4.50;99.90;3.60;101110;;;;548827;261;24288;-81
2022/01/25 06:14:59;;;;;;;6.00;3.50;;;4.50;99.90;3.60;101096;;;;544324;263;24185;-80
2022/01/25 06:17:25;;;;;;;5.17;3.33;;;4.50;99.90;3.60;101116;;;;546120;259;24217;-80
2022/01/25 06:19:52;;;;;;;6.53;3.43;;;4.50;99.90;3.60;101118;;;;554514;257;24160;-82
2022/01/25 06:22:21;;;;;;;3.30;2.87;;;4.50;99.90;3.60;101111;;;;546051;260;24163;-81
2022/01/25 06:24:49;;;;;;;3.23;2.93;;;4.60;99.90;3.60;101112;;;;554255;256;24153;-82
2022/01/25 06:27:17;;;;;;;3.70;3.00;;;4.50;99.90;3.60;101112;;;;546181;260;24197;-82
2022/01/25 06:29:46;;;;;;;4.07;3.27;;;4.60;99.90;3.60;101107;;;;546206;260;24143;-82
2022/01/25 06:32:13;;;;;;;3.80;2.77;;;4.50;99.90;3.60;101106;;;;546204;260;24182;-82
2022/01/25 06:34:44;;;;;;;5.87;4.10;;;4.60;99.90;3.60;101106;;;;554162;258;24136;-82
2022/01/25 06:37:09;;;;;;;3.43;3.13;;;4.50;99.90;3.60;101109;;;;546038;260;24238;-81
2022/01/25 06:39:40;;;;;;;4.57;3.30;;;4.60;99.90;3.60;101100;;;;545719;260;24132;-82
2022/01/25 06:42:04;;;;;;;5.73;3.73;;;4.60;99.90;3.60;101105;;;;545824;260;24166;-83
2022/01/25 06:44:34;;;;;;;4.83;3.60;;;4.60;99.90;3.60;101104;;;;545649;260;24162;-83
2022/01/25 06:47:00;;;;;;;6.53;4.80;;;4.50;99.90;3.60;101105;;;;546032;260;24177;-82
2022/01/25 06:49:28;;;;;;;7.23;4.00;;;4.50;99.90;3.60;101092;;;;553954;259;25261;-82
2022/01/25 06:51:59;;;;;;;5.17;4.63;;;4.60;99.90;3.60;101088;;;;545810;260;24183;-82
2022/01/25 06:54:24;;;;;;;3.53;3.23;;;4.50;99.90;3.60;101085;;;;547113;262;24159;-82
2022/01/25 06:56:52;;;;;;;3.97;3.23;;;4.60;99.90;3.60;101089;;;;543786;263;24191;-82
2022/01/25 06:59:20;;;;;;;4.67;3.53;;;4.50;99.90;3.60;101084;;;;545723;260;24137;-82
2022/01/25 07:01:48;;;;;;;4.90;3.10;;;4.60;99.90;3.60;101075;;;;553847;258;24176;-81
2022/01/25 07:04:16;;;;;;;5.70;4.00;;;4.60;99.90;3.60;101071;;;;545957;260;24142;-80
2022/01/25 07:06:44;;;;;;;6.10;4.53;;;4.60;99.90;3.60;101066;;;;553897;258;24149;-83
2022/01/25 07:09:12;;;;;;;39.33;19.98;;;4.50;99.90;3.70;101076;;;;541137;260;35583;-81
2022/01/25 07:11:40;;;;;;;10.43;5.67;;;4.60;99.90;3.70;101068;;;;548700;261;24156;-81
2022/01/25 07:14:08;;;;;;;7.27;4.57;;;4.60;99.90;3.70;101066;;;;544073;262;25250;-81
2022/01/25 07:16:36;;;;;;;6.00;4.20;;;4.60;99.90;3.70;101070;;;;546982;259;24316;-82
2022/01/25 07:19:07;;;;;;;7.37;3.90;;;4.60;99.90;3.70;101081;;;;554866;257;24192;-81
2022/01/25 07:21:32;;;;;;;7.17;4.00;;;4.70;99.90;3.70;101085;;;;554225;259;24145;-82
2022/01/25 07:24:00;;;;;;;9.07;4.10;;;4.70;99.90;3.70;101083;;;;546342;259;24159;-82
2022/01/25 07:26:29;;;;;;;8.70;4.73;;;4.70;99.90;3.80;101076;;;;554529;257;24183;-81
2022/01/25 07:28:59;;;;;;;6.80;4.70;;;4.70;99.90;3.80;101074;;;;546493;259;24154;-82
2022/01/25 07:31:24;;;;;;;8.47;4.63;;;4.80;99.90;3.80;101074;;;;541498;262;24154;-82
2022/01/25 07:33:52;;;;;;;9.37;5.50;;;4.80;99.90;3.80;101069;;;;536640;264;24218;-81
2022/01/25 07:36:20;;;;;;;6.43;4.23;;;4.80;99.90;3.90;101069;;;;546361;260;24152;-81
2022/01/25 07:38:48;;;;;;;7.67;4.80;;;4.80;99.90;3.90;101063;;;;554349;258;24140;-82
2022/01/25 07:41:16;;;;;;;6.60;3.73;;;4.80;99.90;4.00;101066;;;;546457;260;24156;-82
2022/01/25 07:43:43;;;;;;;4.70;2.97;;;4.90;99.90;4.00;101070;;;;554470;258;24139;-81
2022/01/25 07:46:12;;;;;;;6.43;4.50;;;4.90;99.90;4.00;101073;;;;546234;260;24155;-81
2022/01/25 07:48:39;;;;;;;8.30;4.30;;;4.90;99.90;4.00;101073;;;;554171;258;24332;-82
2022/01/25 07:51:07;;;;;;;6.90;3.70;;;5.00;99.90;4.10;101074;;;;545765;260;24167;-81
2022/01/25 07:53:37;;;;;;;4.77;3.80;;;5.00;99.90;4.10;101073;;;;553577;257;24156;-83
2022/01/25 07:56:03;;;;;;;4.27;3.67;;;5.10;99.90;4.20;101089;;;;545729;260;24137;-83
2022/01/25 07:58:31;;;;;;;8.47;4.80;;;5.10;99.90;4.20;101094;;;;536143;262;24146;-81
2022/01/25 08:00:59;;;;;;;5.10;3.97;;;5.10;99.90;4.20;101096;;;;543797;263;24246;-82
2022/01/25 08:03:27;;;;;;;8.80;5.30;;;5.20;99.90;4.30;101092;;;;545760;260;24174;-82
2022/01/25 08:05:58;;;;;;;8.63;5.03;;;5.20;99.90;4.30;101095;;;;553559;257;24185;-82
2022/01/25 08:08:22;;;;;;;6.67;3.70;;;5.30;99.90;4.30;101093;;;;540305;262;24194;-82
2022/01/25 08:10:50;;;;;;;4.50;3.97;;;5.30;99.90;4.40;101103;;;;543657;263;24176;-83
2022/01/25 08:13:18;;;;;;;6.47;5.60;;;5.30;99.90;4.40;101092;;;;540957;260;35590;-81
2022/01/25 08:15:47;;;;;;;6.23;4.83;;;5.40;99.90;4.50;101095;;;;553645;258;24172;-82
2022/01/25 08:18:15;;;;;;;4.77;4.00;;;5.40;99.90;4.50;101096;;;;545756;260;24155;-83
2022/01/25 08:20:44;;;;;;;4.27;3.87;;;5.50;99.90;4.50;101099;;;;553686;258;24160;-83
2022/01/25 08:23:12;;;;;;;5.07;2.80;;;5.50;99.90;4.60;101093;;;;545574;260;24140;-82
2022/01/25 08:25:39;;;;;;;6.17;3.47;;;5.40;99.90;4.60;101085;;;;545912;258;24176;-82
2022/01/25 08:28:10;;;;;;;4.87;3.20;;;5.50;99.90;4.60;101085;;;;555265;257;24161;-81
2022/01/25 08:30:35;;;;;;;6.33;3.53;;;5.50;99.90;4.60;101083;;;;554703;259;24156;-82
2022/01/25 08:33:03;;;;;;;7.93;5.30;;;5.50;99.90;4.50;101090;;;;546723;259;24145;-83
2022/01/25 08:35:31;;;;;;;9.87;4.13;;;5.50;99.90;4.50;101086;;;;536988;260;24150;-82
2022/01/25 08:37:59;;;;;;;5.20;4.10;;;5.50;99.90;4.50;101090;;;;544518;263;24178;-81
2022/01/25 08:40:30;;;;;;;4.30;3.90;;;5.50;99.90;4.50;101085;;;;546481;259;24144;-82
2022/01/25 08:42:55;;;;;;;4.50;3.27;;;5.50;99.90;4.50;101082;;;;542241;262;24150;-83
2022/01/25 08:45:23;;;;;;;4.90;3.10;;;5.50;99.90;4.50;101073;;;;544292;263;24158;-82
2022/01/25 08:47:51;;;;;;;6.13;3.77;;;5.40;99.90;4.50;101082;;;;542129;262;25228;-81
2022/01/25 08:50:19;;;;;;;7.73;3.77;;;5.50;99.90;4.60;101078;;;;544257;263;24162;-82
2022/01/25 08:52:47;;;;;;;6.60;3.70;;;5.50;99.90;4.70;101084;;;;545868;260;24170;-82
2022/01/25 08:55:15;;;;;;;5.53;3.50;;;5.60;99.90;4.80;101089;;;;553839;259;24140;-82
2022/01/25 08:57:43;;;;;;;4.23;3.83;;;5.70;99.90;5.00;101101;;;;553035;257;24170;-83
2022/01/25 09:00:11;;;;;;;4.87;3.53;;;5.80;99.90;5.30;101092;;;;553938;258;24177;-82
2022/01/25 09:02:42;;;;;;;6.50;3.17;;;6.10;99.90;5.50;101090;;;;553651;259;24159;-83
2022/01/25 09:05:07;;;;;;;5.37;3.40;;;6.30;99.90;5.50;101092;;;;546888;262;24195;-82
2022/01/25 09:07:34;;;;;;;3.87;2.87;;;6.40;99.90;5.50;101088;;;;545734;260;24140;-81
2022/01/25 09:10:06;;;;;;;4.10;3.20;;;6.40;99.90;5.40;101091;;;;545563;260;24156;-83
2022/01/25 09:12:30;;;;;;;3.07;2.77;;;6.40;99.90;5.40;101091;;;;546916;262;24186;-82
2022/01/25 09:14:58;;;;;;;6.97;3.17;;;6.30;99.90;5.40;101093;;;;530812;266;24194;-82
2022/01/25 09:17:26;;;;;;;3.90;2.57;;;6.30;99.90;5.40;101109;;;;543614;263;24203;-81
2022/01/25 09:19:54;;;;;;;8.47;3.70;;;6.30;99.90;5.40;101093;;;;545644;260;24159;-82
2022/01/25 09:22:22;;;;;;;3.17;2.87;;;6.30;99.90;5.60;101100;;;;553556;258;24160;-83
2022/01/25 09:24:50;;;;;;;4.77;3.40;;;6.40;99.90;5.70;101100;;;;545680;260;24148;-81
2022/01/25 09:27:18;;;;;;;2.93;2.13;;;6.60;99.90;5.70;101092;;;;532254;262;24199;-81
2022/01/25 09:29:49;;;;;;;5.27;3.17;;;6.60;99.90;5.70;101091;;;;546046;260;24140;-82
2022/01/25 09:32:14;;;;;;;3.70;3.03;;;6.60;99.90;5.70;101087;;;;553760;259;24171;-82
2022/01/25 09:34:41;;;;;;;6.10;4.57;;;6.60;99.90;5.70;101091;;;;553931;258;24194;-81
2022/01/25 09:37:09;;;;;;;5.17;3.80;;;6.60;99.90;5.70;101102;;;;546052;258;24152;-82
2022/01/25 09:39:37;;;;;;;5.83;3.93;;;6.60;99.90;5.60;101096;;;;555310;257;24156;-82
2022/01/25 09:42:09;;;;;;;5.37;3.83;;;6.50;99.90;5.50;101111;;;;549827;259;25193;-82
2022/01/25 09:44:34;;;;;;;5.53;3.10;;;6.50;99.90;5.50;101105;;;;546225;259;24141;-82
2022/01/25 09:47:02;;;;;;;8.83;3.80;;;6.40;99.90;5.40;101103;;;;546572;259;24205;-82
2022/01/25 09:49:30;;;;;;;5.47;3.67;;;6.30;99.90;5.40;101111;;;;554473;257;24136;-83
2022/01/25 09:51:58;;;;;;;5.07;3.73;;;6.30;99.90;5.40;101114;;;;546079;259;24141;-82
2022/01/25 09:54:26;;;;;;;5.30;3.53;;;6.30;99.90;5.40;101114;;;;554147;259;24151;-82
2022/01/25 09:56:54;;;;;;;4.73;3.70;;;6.30;99.90;5.50;101121;;;;545918;260;24183;-82
2022/01/25 09:59:26;;;;;;;9.95;5.62;;;6.30;99.90;5.50;101109;;;;549153;257;35605;-81
2022/01/25 10:01:51;;;;;;;8.37;4.07;;;6.30;99.90;5.60;101115;;;;545756;260;24174;-82
2022/01/25 10:04:29;;;;;;;5.23;3.33;;;6.40;99.90;5.70;101106;;;;553808;258;24166;-82
2022/01/25 10:06:59;;;;;;;3.77;3.20;;;6.50;99.90;5.80;101096;;;;548565;261;24151;-82
2022/01/25 10:09:25;;;;;;;5.83;4.63;;;6.60;99.90;5.90;101101;;;;538249;264;35797;-81
2022/01/25 10:11:52;;;;;;;11.40;6.60;;;6.80;99.90;6.10;101106;;;;549094;256;35677;-82
2022/01/25 10:14:23;;;;;;;6.60;5.32;;;7.00;99.90;6.30;101093;;;;530656;264;35794;-81
2022/01/25 10:16:50;;;;;;;3.87;3.00;;;7.20;99.90;6.50;101087;;;;553740;258;24190;-82
2022/01/25 10:19:15;;;;;;;4.73;3.20;;;7.40;99.90;6.60;101102;;;;545572;260;24145;-81
2022/01/25 10:21:49;;;;;;;5.47;3.60;;;7.60;99.90;6.60;101103;;;;540858;260;35582;-83
2022/01/25 10:24:21;;;;;;;5.35;3.85;;;7.60;99.90;6.60;101110;;;;540634;260;35620;-80
2022/01/25 10:27:03;;;;;;;4.07;3.10;;;7.50;99.90;6.60;101095;;;;553047;259;24188;-80
2022/01/25 10:29:34;;;;;;;6.53;3.30;;;7.50;99.90;6.80;101084;;;;544537;260;24157;-83
2022/01/25 10:32:09;;;;;;;5.73;4.03;;;7.60;99.90;6.80;101077;;;;545427;260;25372;-80
2022/01/25 10:34:38;;;;;;;7.77;4.53;;;7.70;99.90;6.80;101075;;;;552838;259;24262;-81
2022/01/25 10:37:13;;;;;;;6.53;2.90;;;7.70;99.90;6.70;101073;;;;553720;259;24174;-81
2022/01/25 10:39:41;;;;;;;3.57;2.50;;;7.60;99.90;6.70;101070;;;;542120;260;24170;-81
2022/01/25 10:42:08;;;;;;;4.13;2.57;;;7.60;99.90;6.70;101065;;;;552975;259;24255;-81
2022/01/25 10:44:49;;;;;;;4.70;2.77;;;7.60;99.90;6.70;101069;;;;553711;259;24158;-82
2022/01/25 10:47:16;;;;;;;4.07;2.60;;;7.60;99.90;6.40;101067;;;;541947;260;24160;-81
2022/01/25 10:49:47;;;;;;;3.83;2.00;;;7.40;99.90;6.30;101069;;;;553572;258;24212;-82
2022/01/25 10:52:28;;;;;;;5.67;2.63;;;7.30;99.90;6.20;101066;;;;541362;262;24185;-81
2022/01/25 10:54:53;;;;;;;3.70;2.30;;;7.00;99.90;6.00;101069;;;;536460;262;25314;-81
2022/01/25 10:57:24;;;;;;;2.27;2.00;;;7.00;99.90;5.90;101064;;;;544235;263;24177;-82
2022/01/25 10:59:58;;;;;;;3.40;2.87;;;6.90;99.90;5.90;101066;;;;552871;259;24203;-83
2022/01/25 11:02:28;;;;;;;6.00;4.12;;;6.80;99.90;6.00;101061;;;;548889;259;35603;-80
2022/01/25 11:04:57;;;;;;;5.33;3.37;;;6.90;99.90;6.00;101055;;;;545864;259;24180;-81
2022/01/25 11:07:21;;;;;;;3.03;2.47;;;6.90;99.90;6.20;101040;;;;552586;259;24166;-82
2022/01/25 11:09:49;;;;;;;4.63;2.60;;;7.00;99.90;6.20;101051;;;;546060;260;24194;-81
2022/01/25 11:12:19;;;;;;;6.37;3.90;;;7.10;99.90;6.30;101052;;;;553640;259;24178;-80
2022/01/25 11:14:56;;;;;;;10.63;3.63;;;7.10;99.90;6.50;101054;;;;545726;260;24145;-81
2022/01/25 11:17:28;;;;;;;5.10;2.80;;;7.30;99.90;6.70;101067;;;;535302;264;24191;-81
2022/01/25 11:19:58;;;;;;;5.37;2.97;;;7.50;99.90;6.70;101064;;;;531975;266;24201;-81
2022/01/25 11:22:30;;;;;;;3.43;2.23;;;7.60;99.90;6.70;101069;;;;536371;262;24195;-80
2022/01/25 11:24:57;;;;;;;4.30;3.27;;;7.60;99.90;6.60;101062;;;;542688;261;24151;-80
2022/01/25 11:27:26;;;;;;;3.20;2.30;;;7.50;99.90;6.50;101069;;;;564416;253;24114;-82
2022/01/25 11:29:53;;;;;;;5.90;3.07;;;7.40;99.90;6.50;101069;;;;565165;253;24276;-81
2022/01/25 11:32:25;;;;;;;4.60;3.00;;;7.30;99.90;6.40;101064;;;;565441;252;24154;-80
2022/01/25 11:34:53;;;;;;;6.40;2.63;;;7.20;99.90;6.30;101064;;;;536401;263;24185;-81
2022/01/25 11:37:21;;;;;;;5.93;3.17;;;7.20;99.90;6.20;101061;;;;552853;259;24179;-82
2022/01/25 11:39:52;;;;;;;8.07;3.17;;;7.10;99.90;6.10;101061;;;;553050;259;24216;-79
2022/01/25 11:42:17;;;;;;;7.17;2.70;;;7.00;99.90;6.00;101067;;;;545453;260;24190;-82
2022/01/25 11:44:57;;;;;;;7.23;4.03;;;6.90;99.90;5.90;101054;;;;553630;259;24152;-81
2022/01/25 11:47:30;;;;;;;5.87;3.17;;;6.80;99.90;5.90;101051;;;;545850;260;24209;-81
2022/01/25 11:50:07;;;;;;;7.27;3.27;;;6.80;99.90;6.00;101049;;;;553455;259;24216;-80
2022/01/25 11:52:39;;;;;;;3.80;2.57;;;6.80;99.90;6.00;101043;;;;535403;264;24180;-80
2022/01/25 11:55:24;;;;;;;2.70;2.33;;;6.90;99.90;6.00;101039;;;;548497;262;24211;-81
2022/01/25 11:58:13;;;;;;;4.37;2.10;;;6.90;99.90;6.10;101042;;;;543809;264;24187;-81
2022/01/25 12:00:53;;;;;;;3.50;2.03;;;7.00;99.90;6.10;101042;;;;541537;260;24191;-82
2022/01/25 12:03:21;;;;;;;11.43;2.80;;;7.00;99.90;6.10;101047;;;;541836;262;24209;-81
2022/01/25 12:06:21;;;;;;;4.77;3.03;;;7.00;99.90;6.20;101030;;;;544517;263;24240;-81
2022/01/25 12:09:31;;;;;;;8.30;2.70;;;7.00;99.90;6.30;101042;;;;537635;258;24208;-81
2022/01/25 12:11:57;;;;;;;5.70;3.67;;;7.10;99.90;6.40;101035;;;;541514;262;24195;-81
2022/01/25 12:14:37;;;;;;;4.90;3.33;;;7.20;99.90;6.40;101042;;;;544282;262;24183;-82
2022/01/25 12:17:05;;;;;;;8.50;3.30;;;7.30;99.90;6.40;101048;;;;536720;264;24186;-82
2022/01/25 12:19:51;;;;;;;3.63;2.63;;;7.30;99.90;6.30;101042;;;;546141;260;24188;-81
2022/01/25 12:22:49;;;;;;;5.97;2.97;;;7.20;99.90;6.10;101051;;;;546017;260;24187;-81
2022/01/25 12:25:07;;;;;;;3.57;2.40;;;7.10;99.90;6.00;101049;;;;532790;264;24183;-81
2022/01/25 12:27:46;;;;;;;7.53;2.60;;;6.90;99.90;5.90;101058;;;;546077;260;24180;-82
2022/01/25 12:30:13;;;;;;;5.57;3.17;;;6.80;99.90;5.80;101052;;;;538422;258;24203;-82
2022/01/25 12:32:55;;;;;;;6.70;2.87;;;6.70;99.90;5.80;101062;;;;536432;264;25210;-82
2022/01/25 12:35:47;;;;;;;3.70;2.57;;;6.70;99.90;5.80;101060;;;;536814;264;24190;-83
2022/01/25 12:38:20;;;;;;;5.30;2.80;;;6.60;99.90;5.80;101060;;;;545077;260;24172;-82
2022/01/25 12:41:13;;;;;;;2.93;2.73;;;6.70;99.90;5.80;101055;;;;553339;259;25186;-82
2022/01/25 12:43:43;;;;;;;3.23;2.77;;;6.70;99.90;5.90;101054;;;;535727;262;24175;-81
2022/01/25 12:46:14;;;;;;;6.97;3.13;;;6.80;99.90;5.90;101050;;;;539566;265;24202;-81
2022/01/25 12:48:46;;;;;;;6.10;3.50;;;6.80;99.90;6.00;101052;;;;550426;260;24167;-82
2022/01/25 12:51:11;;;;;;;4.23;3.77;;;6.90;99.90;6.00;101056;;;;543483;260;24199;-82
2022/01/25 12:53:39;;;;;;;4.63;3.30;;;6.90;99.90;6.10;101055;;;;532000;264;24169;-81
2022/01/25 12:56:14;;;;;;;4.27;3.47;;;6.90;99.90;6.10;101043;;;;543952;264;24212;-82
2022/01/25 12:58:40;;;;;;;7.53;3.20;;;7.00;99.90;6.10;101048;;;;545787;260;24168;-81